sensor_id;sensor_type;location;lat;lon;timestamp;pressure;altitude;pressure_sealevel;temperature;humidity
67803;BME280;54601;51.378;-1.342;2023-03-03T00:01:33;101346.78;;;14.97;26.80
67803;BME280;54601;51.378;-1.342;2023-03-03T00:03:59;101345.43;;;15.01;26.63
67803;BME280;54601;51.378;-1.342;2023-03-03T00:06:25;101346.03;;;15.21;26.62
67803;BME280;54601;51.378;-1.342;2023-03-03T00:08:50;101351.38;;;15.11;26.55
67803;BME280;54601;51.378;-1.342;2023-03-03T00:11:16;101353.43;;;15.22;26.69
67803;BME280;54601;51.378;-1.342;2023-03-03T00:13:46;101357.49;;;14.98;26.89
67803;BME280;54601;51.378;-1.342;2023-03-03T00:16:14;101362.89;;;14.99;26.84
67803;BME280;54601;51.378;-1.342;2023-03-03T00:18:35;101362.05;;;15.05;26.83
67803;BME280;54601;51.378;-1.342;2023-03-03T00:20:59;101359.90;;;14.77;26.85
67803;BME280;54601;51.378;-1.342;2023-03-03T00:23:29;101360.31;;;15.05;26.82
67803;BME280;54601;51.378;-1.342;2023-03-03T00:25:50;101358.33;;;14.47;26.94
67803;BME280;54601;51.378;-1.342;2023-03-03T00:28:22;101360.29;;;15.00;26.71
67803;BME280;54601;51.378;-1.342;2023-03-03T00:30:40;101359.18;;;14.76;26.90
67803;BME280;54601;51.378;-1.342;2023-03-03T00:33:13;101361.72;;;14.99;26.91
67803;BME280;54601;51.378;-1.342;2023-03-03T00:35:32;101362.65;;;14.62;27.06
67803;BME280;54601;51.378;-1.342;2023-03-03T00:37:58;101360.83;;;15.09;26.87
67803;BME280;54601;51.378;-1.342;2023-03-03T00:40:24;101364.16;;;15.14;26.83
67803;BME280;54601;51.378;-1.342;2023-03-03T00:42:50;101362.93;;;15.00;26.93
67803;BME280;54601;51.378;-1.342;2023-03-03T00:45:23;101362.41;;;15.16;26.74
67803;BME280;54601;51.378;-1.342;2023-03-03T00:47:42;101360.41;;;15.16;26.80
67803;BME280;54601;51.378;-1.342;2023-03-03T00:52:33;101361.16;;;15.19;26.78
67803;BME280;54601;51.378;-1.342;2023-03-03T00:54:56;101361.81;;;14.96;26.76
67803;BME280;54601;51.378;-1.342;2023-03-03T00:57:21;101367.22;;;15.11;26.61
67803;BME280;54601;51.378;-1.342;2023-03-03T00:59:47;101371.01;;;15.10;26.63
67803;BME280;54601;51.378;-1.342;2023-03-03T01:02:13;101370.96;;;15.18;26.76
67803;BME280;54601;51.378;-1.342;2023-03-03T01:04:39;101373.80;;;15.07;26.87
67803;BME280;54601;51.378;-1.342;2023-03-03T01:07:04;101375.81;;;15.04;26.74
67803;BME280;54601;51.378;-1.342;2023-03-03T01:09:29;101377.07;;;15.10;26.86
67803;BME280;54601;51.378;-1.342;2023-03-03T01:11:55;101381.47;;;15.12;26.62
67803;BME280;54601;51.378;-1.342;2023-03-03T01:14:21;101378.78;;;15.20;26.52
67803;BME280;54601;51.378;-1.342;2023-03-03T01:16:46;101379.83;;;14.70;26.77
67803;BME280;54601;51.378;-1.342;2023-03-03T01:19:12;101379.30;;;14.80;26.91
67803;BME280;54601;51.378;-1.342;2023-03-03T01:21:37;101383.17;;;14.96;26.78
67803;BME280;54601;51.378;-1.342;2023-03-03T01:24:03;101386.33;;;14.88;26.87
67803;BME280;54601;51.378;-1.342;2023-03-03T01:26:28;101384.33;;;15.03;26.75
67803;BME280;54601;51.378;-1.342;2023-03-03T01:28:54;101388.28;;;14.75;27.00
67803;BME280;54601;51.378;-1.342;2023-03-03T01:31:20;101389.50;;;14.97;26.58
67803;BME280;54601;51.378;-1.342;2023-03-03T01:33:45;101390.87;;;15.13;26.62
67803;BME280;54601;51.378;-1.342;2023-03-03T01:36:11;101392.01;;;15.07;26.72
67803;BME280;54601;51.378;-1.342;2023-03-03T01:38:37;101393.31;;;15.27;26.74
67803;BME280;54601;51.378;-1.342;2023-03-03T01:41:03;101394.95;;;14.62;26.89
67803;BME280;54601;51.378;-1.342;2023-03-03T01:43:29;101395.56;;;14.92;26.85
67803;BME280;54601;51.378;-1.342;2023-03-03T01:48:22;101396.77;;;14.90;26.87
67803;BME280;54601;51.378;-1.342;2023-03-03T01:50:48;101390.73;;;14.99;26.56
67803;BME280;54601;51.378;-1.342;2023-03-03T01:53:14;101393.75;;;15.31;26.64
67803;BME280;54601;51.378;-1.342;2023-03-03T01:55:38;101388.49;;;14.97;26.78
67803;BME280;54601;51.378;-1.342;2023-03-03T01:58:05;101389.94;;;15.18;26.82
67803;BME280;54601;51.378;-1.342;2023-03-03T02:00:28;101383.30;;;15.26;26.75
67803;BME280;54601;51.378;-1.342;2023-03-03T02:02:53;101387.73;;;15.20;26.81
67803;BME280;54601;51.378;-1.342;2023-03-03T02:05:18;101390.91;;;15.16;26.81
67803;BME280;54601;51.378;-1.342;2023-03-03T02:07:44;101392.28;;;15.28;26.74
67803;BME280;54601;51.378;-1.342;2023-03-03T02:10:11;101391.96;;;15.21;26.80
67803;BME280;54601;51.378;-1.342;2023-03-03T02:12:37;101390.42;;;15.24;26.81
67803;BME280;54601;51.378;-1.342;2023-03-03T02:15:01;101392.71;;;15.01;26.54
67803;BME280;54601;51.378;-1.342;2023-03-03T02:17:26;101394.55;;;15.25;26.71
67803;BME280;54601;51.378;-1.342;2023-03-03T02:19:56;101395.64;;;15.28;26.70
67803;BME280;54601;51.378;-1.342;2023-03-03T02:22:21;101398.22;;;15.36;26.67
67803;BME280;54601;51.378;-1.342;2023-03-03T02:24:48;101396.65;;;15.24;26.56
67803;BME280;54601;51.378;-1.342;2023-03-03T02:27:08;101397.72;;;15.23;26.59
67803;BME280;54601;51.378;-1.342;2023-03-03T02:29:34;101401.56;;;15.22;26.80
67803;BME280;54601;51.378;-1.342;2023-03-03T02:31:59;101403.01;;;14.96;26.82
67803;BME280;54601;51.378;-1.342;2023-03-03T02:34:25;101403.43;;;15.26;26.74
67803;BME280;54601;51.378;-1.342;2023-03-03T02:36:51;101403.76;;;14.81;26.75
67803;BME280;54601;51.378;-1.342;2023-03-03T02:39:22;101405.94;;;15.38;26.64
67803;BME280;54601;51.378;-1.342;2023-03-03T02:41:44;101407.58;;;15.34;26.66
67803;BME280;54601;51.378;-1.342;2023-03-03T02:44:09;101410.31;;;14.97;26.98
67803;BME280;54601;51.378;-1.342;2023-03-03T02:46:35;101410.13;;;15.45;26.56
67803;BME280;54601;51.378;-1.342;2023-03-03T02:48:59;101411.88;;;15.10;26.65
67803;BME280;54601;51.378;-1.342;2023-03-03T02:51:25;101410.22;;;15.25;26.48
67803;BME280;54601;51.378;-1.342;2023-03-03T02:53:50;101404.96;;;15.15;26.60
67803;BME280;54601;51.378;-1.342;2023-03-03T02:56:16;101406.24;;;15.38;26.61
67803;BME280;54601;51.378;-1.342;2023-03-03T02:58:41;101408.72;;;15.26;26.73
67803;BME280;54601;51.378;-1.342;2023-03-03T03:01:07;101407.25;;;15.10;26.63
67803;BME280;54601;51.378;-1.342;2023-03-03T03:03:32;101409.31;;;15.39;26.58
67803;BME280;54601;51.378;-1.342;2023-03-03T03:05:58;101411.49;;;15.02;26.72
67803;BME280;54601;51.378;-1.342;2023-03-03T03:08:23;101411.07;;;15.31;26.64
67803;BME280;54601;51.378;-1.342;2023-03-03T03:10:49;101408.83;;;15.55;26.40
67803;BME280;54601;51.378;-1.342;2023-03-03T03:13:15;101409.10;;;15.30;26.64
67803;BME280;54601;51.378;-1.342;2023-03-03T03:15:40;101408.37;;;15.32;26.61
67803;BME280;54601;51.378;-1.342;2023-03-03T03:18:06;101407.67;;;15.34;26.61
67803;BME280;54601;51.378;-1.342;2023-03-03T03:20:34;101410.45;;;15.24;26.48
67803;BME280;54601;51.378;-1.342;2023-03-03T03:22:57;101410.31;;;15.19;26.52
67803;BME280;54601;51.378;-1.342;2023-03-03T03:25:22;101411.84;;;15.39;26.55
67803;BME280;54601;51.378;-1.342;2023-03-03T03:27:48;101408.32;;;15.45;26.46
67803;BME280;54601;51.378;-1.342;2023-03-03T03:30:14;101404.94;;;15.06;26.63
67803;BME280;54601;51.378;-1.342;2023-03-03T03:32:39;101404.39;;;15.14;26.55
67803;BME280;54601;51.378;-1.342;2023-03-03T03:35:05;101405.75;;;15.22;26.65
67803;BME280;54601;51.378;-1.342;2023-03-03T03:37:30;101406.22;;;15.40;26.51
67803;BME280;54601;51.378;-1.342;2023-03-03T03:39:56;101407.76;;;15.44;26.46
67803;BME280;54601;51.378;-1.342;2023-03-03T03:42:21;101407.62;;;15.28;26.59
67803;BME280;54601;51.378;-1.342;2023-03-03T03:44:47;101405.86;;;15.20;26.45
67803;BME280;54601;51.378;-1.342;2023-03-03T03:47:13;101405.55;;;15.11;26.51
67803;BME280;54601;51.378;-1.342;2023-03-03T03:49:38;101403.07;;;15.17;26.69
67803;BME280;54601;51.378;-1.342;2023-03-03T03:52:04;101403.13;;;14.96;26.68
67803;BME280;54601;51.378;-1.342;2023-03-03T03:54:29;101403.36;;;15.16;26.51
67803;BME280;54601;51.378;-1.342;2023-03-03T03:56:55;101400.07;;;15.26;26.56
67803;BME280;54601;51.378;-1.342;2023-03-03T03:59:21;101403.33;;;14.93;26.87
67803;BME280;54601;51.378;-1.342;2023-03-03T04:01:46;101403.00;;;15.02;26.62
67803;BME280;54601;51.378;-1.342;2023-03-03T04:04:12;101398.42;;;15.31;26.54
67803;BME280;54601;51.378;-1.342;2023-03-03T04:06:37;101400.28;;;15.00;26.81
67803;BME280;54601;51.378;-1.342;2023-03-03T04:09:03;101398.42;;;15.28;26.56
67803;BME280;54601;51.378;-1.342;2023-03-03T04:11:28;101399.13;;;15.10;26.75
67803;BME280;54601;51.378;-1.342;2023-03-03T04:13:54;101400.60;;;15.16;26.68
67803;BME280;54601;51.378;-1.342;2023-03-03T04:16:20;101400.46;;;15.34;26.50
67803;BME280;54601;51.378;-1.342;2023-03-03T04:18:45;101400.21;;;15.27;26.49
67803;BME280;54601;51.378;-1.342;2023-03-03T04:21:12;101400.21;;;15.09;26.67
67803;BME280;54601;51.378;-1.342;2023-03-03T04:23:36;101397.42;;;15.08;26.72
67803;BME280;54601;51.378;-1.342;2023-03-03T04:26:02;101397.31;;;15.14;26.65
67803;BME280;54601;51.378;-1.342;2023-03-03T04:28:27;101395.39;;;15.32;26.50
67803;BME280;54601;51.378;-1.342;2023-03-03T04:30:53;101397.00;;;15.31;26.47
67803;BME280;54601;51.378;-1.342;2023-03-03T04:33:19;101397.51;;;15.31;26.50
67803;BME280;54601;51.378;-1.342;2023-03-03T04:35:44;101396.05;;;15.33;26.41
67803;BME280;54601;51.378;-1.342;2023-03-03T04:38:10;101393.20;;;15.34;26.42
67803;BME280;54601;51.378;-1.342;2023-03-03T04:40:35;101401.27;;;15.19;26.59
67803;BME280;54601;51.378;-1.342;2023-03-03T04:43:01;101400.00;;;15.12;26.42
67803;BME280;54601;51.378;-1.342;2023-03-03T04:45:26;101401.32;;;15.12;26.62
67803;BME280;54601;51.378;-1.342;2023-03-03T04:47:52;101399.01;;;15.14;26.40
67803;BME280;54601;51.378;-1.342;2023-03-03T04:50:18;101398.53;;;15.58;26.42
67803;BME280;54601;51.378;-1.342;2023-03-03T04:52:43;101397.45;;;15.29;26.45
67803;BME280;54601;51.378;-1.342;2023-03-03T04:55:09;101394.01;;;14.88;26.40
67803;BME280;54601;51.378;-1.342;2023-03-03T04:57:34;101392.37;;;15.19;26.50
67803;BME280;54601;51.378;-1.342;2023-03-03T05:00:00;101395.16;;;14.87;26.40
67803;BME280;54601;51.378;-1.342;2023-03-03T05:02:26;101399.67;;;15.08;26.39
67803;BME280;54601;51.378;-1.342;2023-03-03T05:04:51;101405.17;;;15.07;26.40
67803;BME280;54601;51.378;-1.342;2023-03-03T05:07:17;101400.10;;;14.82;26.41
67803;BME280;54601;51.378;-1.342;2023-03-03T05:09:42;101400.18;;;15.07;26.39
67803;BME280;54601;51.378;-1.342;2023-03-03T05:12:08;101401.18;;;15.10;26.36
67803;BME280;54601;51.378;-1.342;2023-03-03T05:14:34;101398.70;;;15.40;26.28
67803;BME280;54601;51.378;-1.342;2023-03-03T05:16:59;101396.33;;;15.25;26.37
67803;BME280;54601;51.378;-1.342;2023-03-03T05:19:25;101397.30;;;14.99;26.42
67803;BME280;54601;51.378;-1.342;2023-03-03T05:21:50;101393.41;;;14.79;26.61
67803;BME280;54601;51.378;-1.342;2023-03-03T05:24:16;101393.22;;;15.15;26.47
67803;BME280;54601;51.378;-1.342;2023-03-03T05:26:41;101391.21;;;15.05;26.54
67803;BME280;54601;51.378;-1.342;2023-03-03T05:29:08;101390.97;;;15.24;26.33
67803;BME280;54601;51.378;-1.342;2023-03-03T05:31:33;101391.66;;;15.26;26.30
67803;BME280;54601;51.378;-1.342;2023-03-03T05:33:58;101391.95;;;15.14;26.45
67803;BME280;54601;51.378;-1.342;2023-03-03T05:36:24;101392.13;;;15.15;26.45
67803;BME280;54601;51.378;-1.342;2023-03-03T05:38:49;101392.41;;;15.11;26.48
67803;BME280;54601;51.378;-1.342;2023-03-03T05:41:15;101391.77;;;15.21;26.37
67803;BME280;54601;51.378;-1.342;2023-03-03T05:43:41;101395.98;;;15.02;26.33
67803;BME280;54601;51.378;-1.342;2023-03-03T05:46:06;101394.22;;;15.22;26.35
67803;BME280;54601;51.378;-1.342;2023-03-03T05:48:32;101397.18;;;15.01;26.32
67803;BME280;54601;51.378;-1.342;2023-03-03T05:50:58;101397.62;;;15.06;26.27
67803;BME280;54601;51.378;-1.342;2023-03-03T05:53:23;101397.44;;;15.28;26.27
67803;BME280;54601;51.378;-1.342;2023-03-03T05:55:48;101398.64;;;15.26;26.29
67803;BME280;54601;51.378;-1.342;2023-03-03T05:58:15;101399.55;;;15.27;26.24
67803;BME280;54601;51.378;-1.342;2023-03-03T06:00:40;101399.18;;;15.24;26.30
67803;BME280;54601;51.378;-1.342;2023-03-03T06:03:05;101402.72;;;15.00;26.47
67803;BME280;54601;51.378;-1.342;2023-03-03T06:05:31;101400.69;;;15.19;26.32
67803;BME280;54601;51.378;-1.342;2023-03-03T06:07:57;101398.66;;;15.14;26.37
67803;BME280;54601;51.378;-1.342;2023-03-03T06:10:22;101403.09;;;15.27;26.23
67803;BME280;54601;51.378;-1.342;2023-03-03T06:12:48;101403.81;;;15.22;26.26
67803;BME280;54601;51.378;-1.342;2023-03-03T06:15:14;101405.04;;;15.19;26.27
67803;BME280;54601;51.378;-1.342;2023-03-03T06:17:39;101407.21;;;15.22;26.24
67803;BME280;54601;51.378;-1.342;2023-03-03T06:20:06;101408.50;;;14.86;26.20
67803;BME280;54601;51.378;-1.342;2023-03-03T06:22:31;101403.79;;;15.11;26.12
67803;BME280;54601;51.378;-1.342;2023-03-03T06:24:56;101406.18;;;15.42;26.04
67803;BME280;54601;51.378;-1.342;2023-03-03T06:27:22;101408.45;;;14.98;26.24
67803;BME280;54601;51.378;-1.342;2023-03-03T06:29:47;101408.91;;;14.79;26.40
67803;BME280;54601;51.378;-1.342;2023-03-03T06:32:13;101412.43;;;15.09;26.31
67803;BME280;54601;51.378;-1.342;2023-03-03T06:34:39;101410.27;;;15.18;26.26
67803;BME280;54601;51.378;-1.342;2023-03-03T06:37:04;101408.34;;;15.11;26.29
67803;BME280;54601;51.378;-1.342;2023-03-03T06:39:30;101411.49;;;15.07;26.34
67803;BME280;54601;51.378;-1.342;2023-03-03T06:41:56;101410.97;;;15.00;26.40
67803;BME280;54601;51.378;-1.342;2023-03-03T06:44:22;101410.12;;;15.06;26.35
67803;BME280;54601;51.378;-1.342;2023-03-03T06:46:47;101405.80;;;14.85;26.35
67803;BME280;54601;51.378;-1.342;2023-03-03T06:49:13;101412.95;;;15.15;26.26
67803;BME280;54601;51.378;-1.342;2023-03-03T06:51:39;101416.81;;;14.98;26.43
67803;BME280;54601;51.378;-1.342;2023-03-03T06:54:10;101422.18;;;14.95;26.40
67803;BME280;54601;51.378;-1.342;2023-03-03T06:56:35;101422.83;;;15.31;26.37
67803;BME280;54601;51.378;-1.342;2023-03-03T06:58:58;101425.55;;;14.90;26.49
67803;BME280;54601;51.378;-1.342;2023-03-03T07:01:21;101428.52;;;14.90;26.53
67803;BME280;54601;51.378;-1.342;2023-03-03T07:03:47;101426.34;;;14.61;26.76
67803;BME280;54601;51.378;-1.342;2023-03-03T07:06:20;101429.05;;;15.31;26.63
67803;BME280;54601;51.378;-1.342;2023-03-03T07:08:39;101429.65;;;14.84;26.62
67803;BME280;54601;51.378;-1.342;2023-03-03T07:11:11;101435.45;;;14.65;26.78
67803;BME280;54601;51.378;-1.342;2023-03-03T07:13:31;101439.01;;;14.69;26.78
67803;BME280;54601;51.378;-1.342;2023-03-03T07:15:59;101441.59;;;14.82;26.68
67803;BME280;54601;51.378;-1.342;2023-03-03T07:18:29;101444.61;;;14.83;26.94
67803;BME280;54601;51.378;-1.342;2023-03-03T07:20:47;101445.97;;;14.62;26.87
67803;BME280;54601;51.378;-1.342;2023-03-03T07:23:20;101451.86;;;15.19;26.80
67803;BME280;54601;51.378;-1.342;2023-03-03T07:25:38;101454.61;;;14.52;26.95
67803;BME280;54601;51.378;-1.342;2023-03-03T07:28:14;101454.93;;;14.76;26.79
67803;BME280;54601;51.378;-1.342;2023-03-03T07:30:29;101456.00;;;14.71;26.85
67803;BME280;54601;51.378;-1.342;2023-03-03T07:32:57;101456.01;;;14.55;27.01
67803;BME280;54601;51.378;-1.342;2023-03-03T07:35:28;101459.48;;;14.62;26.95
67803;BME280;54601;51.378;-1.342;2023-03-03T07:37:46;101459.62;;;14.15;26.98
67803;BME280;54601;51.378;-1.342;2023-03-03T07:40:26;101459.22;;;14.75;26.87
67803;BME280;54601;51.378;-1.342;2023-03-03T07:42:40;101458.46;;;14.57;27.04
67803;BME280;54601;51.378;-1.342;2023-03-03T07:47:33;101463.90;;;14.94;27.02
67803;BME280;54601;51.378;-1.342;2023-03-03T07:49:57;101468.91;;;14.70;26.97
67803;BME280;54601;51.378;-1.342;2023-03-03T07:52:27;101469.73;;;14.54;27.17
67803;BME280;54601;51.378;-1.342;2023-03-03T07:54:46;101473.84;;;14.42;27.33
67803;BME280;54601;51.378;-1.342;2023-03-03T07:57:20;101478.08;;;14.42;27.33
67803;BME280;54601;51.378;-1.342;2023-03-03T07:59:42;101482.61;;;14.33;27.48
67803;BME280;54601;51.378;-1.342;2023-03-03T08:02:06;101486.42;;;14.13;27.66
67803;BME280;54601;51.378;-1.342;2023-03-03T08:04:36;101488.08;;;14.47;27.40
67803;BME280;54601;51.378;-1.342;2023-03-03T08:06:55;101491.99;;;14.43;27.45
67803;BME280;54601;51.378;-1.342;2023-03-03T08:09:30;101488.67;;;14.63;27.29
67803;BME280;54601;51.378;-1.342;2023-03-03T08:11:49;101493.56;;;14.54;27.41
67803;BME280;54601;51.378;-1.342;2023-03-03T08:14:15;101497.70;;;14.67;27.59
67803;BME280;54601;51.378;-1.342;2023-03-03T08:16:37;101500.85;;;14.26;27.80
67803;BME280;54601;51.378;-1.342;2023-03-03T08:19:04;101502.67;;;14.21;27.81
67803;BME280;54601;51.378;-1.342;2023-03-03T08:21:28;101502.49;;;14.60;27.50
67803;BME280;54601;51.378;-1.342;2023-03-03T08:23:54;101506.13;;;14.59;27.52
67803;BME280;54601;51.378;-1.342;2023-03-03T08:26:20;101506.93;;;14.18;27.97
67803;BME280;54601;51.378;-1.342;2023-03-03T08:28:46;101506.77;;;14.32;27.84
67803;BME280;54601;51.378;-1.342;2023-03-03T08:31:11;101504.22;;;14.60;27.58
67803;BME280;54601;51.378;-1.342;2023-03-03T08:33:37;101509.67;;;14.28;27.91
67803;BME280;54601;51.378;-1.342;2023-03-03T08:36:03;101509.74;;;14.24;28.03
67803;BME280;54601;51.378;-1.342;2023-03-03T08:38:28;101512.83;;;14.45;27.78
67803;BME280;54601;51.378;-1.342;2023-03-03T08:40:54;101512.78;;;14.44;28.09
67803;BME280;54601;51.378;-1.342;2023-03-03T08:43:19;101514.06;;;13.98;28.31
67803;BME280;54601;51.378;-1.342;2023-03-03T08:45:46;101521.30;;;14.37;27.95
67803;BME280;54601;51.378;-1.342;2023-03-03T08:48:11;101520.62;;;14.26;28.10
67803;BME280;54601;51.378;-1.342;2023-03-03T08:50:36;101522.56;;;14.32;28.05
67803;BME280;54601;51.378;-1.342;2023-03-03T08:53:02;101521.08;;;14.23;28.13
67803;BME280;54601;51.378;-1.342;2023-03-03T08:55:27;101520.72;;;13.86;28.32
67803;BME280;54601;51.378;-1.342;2023-03-03T08:57:53;101520.76;;;14.13;28.33
67803;BME280;54601;51.378;-1.342;2023-03-03T09:00:19;101523.33;;;13.97;28.45
67803;BME280;54601;51.378;-1.342;2023-03-03T09:02:44;101522.55;;;14.32;28.15
67803;BME280;54601;51.378;-1.342;2023-03-03T09:05:10;101526.09;;;14.17;28.31
67803;BME280;54601;51.378;-1.342;2023-03-03T09:07:35;101527.02;;;14.41;28.08
67803;BME280;54601;51.378;-1.342;2023-03-03T09:10:01;101525.57;;;14.31;28.17
67803;BME280;54601;51.378;-1.342;2023-03-03T09:12:30;101526.81;;;14.53;28.01
67803;BME280;54601;51.378;-1.342;2023-03-03T09:14:52;101530.12;;;14.56;27.94
67803;BME280;54601;51.378;-1.342;2023-03-03T09:17:24;101531.12;;;14.71;27.79
67803;BME280;54601;51.378;-1.342;2023-03-03T09:19:43;101531.59;;;14.41;27.87
67803;BME280;54601;51.378;-1.342;2023-03-03T09:22:17;101530.64;;;14.47;28.03
67803;BME280;54601;51.378;-1.342;2023-03-03T09:24:35;101532.85;;;14.47;28.06
67803;BME280;54601;51.378;-1.342;2023-03-03T09:27:00;101533.81;;;14.54;27.97
67803;BME280;54601;51.378;-1.342;2023-03-03T09:29:27;101534.24;;;14.53;27.98
67803;BME280;54601;51.378;-1.342;2023-03-03T09:31:52;101537.58;;;14.60;27.94
67803;BME280;54601;51.378;-1.342;2023-03-03T09:34:21;101538.18;;;14.52;27.96
67803;BME280;54601;51.378;-1.342;2023-03-03T09:36:43;101544.00;;;14.49;28.03
67803;BME280;54601;51.378;-1.342;2023-03-03T09:39:15;101543.11;;;14.47;28.03
67803;BME280;54601;51.378;-1.342;2023-03-03T09:44:15;101548.61;;;14.74;27.76
67803;BME280;54601;51.378;-1.342;2023-03-03T09:46:32;101550.76;;;14.70;27.82
67803;BME280;54601;51.378;-1.342;2023-03-03T09:48:58;101550.82;;;14.30;27.74
67803;BME280;54601;51.378;-1.342;2023-03-03T09:51:29;101551.79;;;14.52;27.76
67803;BME280;54601;51.378;-1.342;2023-03-03T09:56:14;101552.68;;;14.75;27.74
67803;BME280;54601;51.378;-1.342;2023-03-03T09:58:45;101557.10;;;14.33;27.92
67803;BME280;54601;51.378;-1.342;2023-03-03T10:01:10;101554.25;;;14.94;27.56
67803;BME280;54601;51.378;-1.342;2023-03-03T10:05:55;101555.58;;;14.75;27.73
67803;BME280;54601;51.378;-1.342;2023-03-03T10:08:27;101554.92;;;14.13;28.42
67803;BME280;54601;51.378;-1.342;2023-03-03T10:10:50;101559.18;;;14.55;28.58
67803;BME280;54601;51.378;-1.342;2023-03-03T10:13:18;101556.48;;;14.40;29.05
67803;BME280;54601;51.378;-1.342;2023-03-03T10:15:41;101563.56;;;14.96;28.99
67803;BME280;54601;51.378;-1.342;2023-03-03T10:18:05;101559.83;;;14.59;29.44
67803;BME280;54601;51.378;-1.342;2023-03-03T10:20:35;101561.71;;;14.35;29.49
67803;BME280;54601;51.378;-1.342;2023-03-03T10:22:52;101561.88;;;14.44;29.75
67803;BME280;54601;51.378;-1.342;2023-03-03T10:25:23;101557.12;;;14.37;29.65
67803;BME280;54601;51.378;-1.342;2023-03-03T10:27:52;101560.57;;;14.61;29.72
67803;BME280;54601;51.378;-1.342;2023-03-03T10:30:12;101559.25;;;14.67;29.83
67803;BME280;54601;51.378;-1.342;2023-03-03T10:32:40;101559.28;;;15.02;29.18
67803;BME280;54601;51.378;-1.342;2023-03-03T10:37:27;101561.88;;;14.18;29.80
67803;BME280;54601;51.378;-1.342;2023-03-03T10:40:01;101561.26;;;14.86;29.24
67803;BME280;54601;51.378;-1.342;2023-03-03T10:42:26;101566.34;;;14.87;29.51
67803;BME280;54601;51.378;-1.342;2023-03-03T10:44:51;101563.51;;;15.02;29.26
67803;BME280;54601;51.378;-1.342;2023-03-03T10:47:21;101562.74;;;14.22;29.63
67803;BME280;54601;51.378;-1.342;2023-03-03T10:49:39;101561.63;;;14.72;29.36
67803;BME280;54601;51.378;-1.342;2023-03-03T10:52:07;101561.25;;;14.74;29.26
67803;BME280;54601;51.378;-1.342;2023-03-03T10:54:32;101560.45;;;14.99;29.27
67803;BME280;54601;51.378;-1.342;2023-03-03T10:56:51;101567.56;;;14.77;29.28
67803;BME280;54601;51.378;-1.342;2023-03-03T10:59:26;101570.49;;;14.78;29.06
67803;BME280;54601;51.378;-1.342;2023-03-03T11:01:48;101574.18;;;14.90;29.14
67803;BME280;54601;51.378;-1.342;2023-03-03T11:04:17;101575.53;;;14.45;29.73
67803;BME280;54601;51.378;-1.342;2023-03-03T11:06:37;101575.37;;;15.19;29.15
67803;BME280;54601;51.378;-1.342;2023-03-03T11:08:58;101579.26;;;14.98;29.52
67803;BME280;54601;51.378;-1.342;2023-03-03T11:11:28;101580.85;;;14.73;29.18
67803;BME280;54601;51.378;-1.342;2023-03-03T11:13:52;101582.75;;;14.38;29.03
67803;BME280;54601;51.378;-1.342;2023-03-03T11:16:20;101582.14;;;14.54;29.12
67803;BME280;54601;51.378;-1.342;2023-03-03T11:18:49;101584.89;;;14.45;29.17
67803;BME280;54601;51.378;-1.342;2023-03-03T11:21:12;101583.96;;;14.20;28.87
67803;BME280;54601;51.378;-1.342;2023-03-03T11:23:41;101583.43;;;14.29;28.90
67803;BME280;54601;51.378;-1.342;2023-03-03T11:26:03;101589.34;;;14.21;28.69
67803;BME280;54601;51.378;-1.342;2023-03-03T11:28:35;101589.69;;;14.44;28.62
67803;BME280;54601;51.378;-1.342;2023-03-03T11:30:56;101594.32;;;14.55;28.38
67803;BME280;54601;51.378;-1.342;2023-03-03T11:33:16;101593.06;;;14.46;28.47
67803;BME280;54601;51.378;-1.342;2023-03-03T11:35:43;101594.47;;;14.72;28.42
67803;BME280;54601;51.378;-1.342;2023-03-03T11:38:12;101595.61;;;14.35;28.28
67803;BME280;54601;51.378;-1.342;2023-03-03T11:40:35;101594.61;;;14.72;28.27
67803;BME280;54601;51.378;-1.342;2023-03-03T11:43:00;101595.82;;;14.81;28.17
67803;BME280;54601;51.378;-1.342;2023-03-03T11:45:21;101593.40;;;14.33;28.37
67803;BME280;54601;51.378;-1.342;2023-03-03T11:47:48;101590.67;;;14.63;28.25
67803;BME280;54601;51.378;-1.342;2023-03-03T11:50:15;101593.53;;;14.71;28.11
67803;BME280;54601;51.378;-1.342;2023-03-03T11:52:39;101588.55;;;14.62;28.15
67803;BME280;54601;51.378;-1.342;2023-03-03T11:55:04;101585.57;;;14.43;28.13
67803;BME280;54601;51.378;-1.342;2023-03-03T11:57:31;101587.30;;;14.71;28.03
67803;BME280;54601;51.378;-1.342;2023-03-03T12:00:00;101581.66;;;14.49;27.95
67803;BME280;54601;51.378;-1.342;2023-03-03T12:02:30;101583.68;;;14.21;27.98
67803;BME280;54601;51.378;-1.342;2023-03-03T12:04:47;101584.07;;;14.26;27.91
67803;BME280;54601;51.378;-1.342;2023-03-03T12:07:19;101585.17;;;14.65;27.92
67803;BME280;54601;51.378;-1.342;2023-03-03T12:09:41;101587.86;;;14.39;27.86
67803;BME280;54601;51.378;-1.342;2023-03-03T12:12:05;101585.34;;;14.72;27.79
67803;BME280;54601;51.378;-1.342;2023-03-03T12:14:36;101586.34;;;14.42;27.85
67803;BME280;54601;51.378;-1.342;2023-03-03T12:16:55;101582.98;;;14.38;27.86
67803;BME280;54601;51.378;-1.342;2023-03-03T12:19:24;101585.31;;;14.45;27.82
67803;BME280;54601;51.378;-1.342;2023-03-03T12:21:53;101583.60;;;14.37;27.63
67803;BME280;54601;51.378;-1.342;2023-03-03T12:24:20;101579.12;;;14.72;27.81
67803;BME280;54601;51.378;-1.342;2023-03-03T12:26:39;101576.55;;;14.29;27.70
67803;BME280;54601;51.378;-1.342;2023-03-03T12:29:05;101573.58;;;14.51;27.73
67803;BME280;54601;51.378;-1.342;2023-03-03T12:31:34;101572.78;;;14.74;27.47
67803;BME280;54601;51.378;-1.342;2023-03-03T12:33:54;101566.04;;;15.09;27.34
67803;BME280;54601;51.378;-1.342;2023-03-03T12:36:24;101570.37;;;15.03;27.36
67803;BME280;54601;51.378;-1.342;2023-03-03T12:38:47;101566.99;;;15.23;27.17
67803;BME280;54601;51.378;-1.342;2023-03-03T12:41:11;101569.67;;;15.15;27.19
67803;BME280;54601;51.378;-1.342;2023-03-03T12:43:42;101567.42;;;14.83;27.12
67803;BME280;54601;51.378;-1.342;2023-03-03T12:46:04;101561.90;;;14.74;27.19
67803;BME280;54601;51.378;-1.342;2023-03-03T12:48:33;101559.55;;;14.87;27.25